Time,TemperatureF,DewpointF,PressureIn,WindDirection,WindDirectionDegrees,WindSpeedMPH,WindSpeedGustMPH,Humidity,HourlyPrecipIn,Conditions,Clouds,dailyrainin,SoftwareType,DateUTC
2013-01-24 00:01:00,-6.8,-10.6,30.58,WSW,239,0.0,0.0,83,0.00,,---,0.00,VWS V14.00,2013-01-24 06:01:00,
2013-01-24 00:06:00,-6.8,-10.6,30.58,WSW,239,0.0,0.0,83,0.00,,---,0.00,VWS V14.00,2013-01-24 06:06:00,
2013-01-24 00:11:00,-6.8,-10.6,30.58,WSW,239,0.0,0.0,83,0.00,,---,0.00,VWS V14.00,2013-01-24 06:11:00,
2013-01-24 00:16:00,-6.8,-10.6,30.59,WSW,239,0.0,0.0,83,0.00,,---,0.00,VWS V14.00,2013-01-24 06:16:00,
2013-01-24 00:21:00,-6.8,-10.6,30.58,WSW,239,0.0,0.0,83,0.00,,---,0.00,VWS V14.00,2013-01-24 06:21:00,
2013-01-24 00:26:00,-6.8,-10.6,30.59,WSW,239,0.0,0.0,83,0.00,,---,0.00,VWS V14.00,2013-01-24 06:26:00,
2013-01-24 00:31:00,-7.7,-11.5,30.60,WSW,239,0.0,0.0,83,0.00,,---,0.00,VWS V14.00,2013-01-24 06:31:00,
2013-01-24 00:36:00,-7.7,-11.5,30.60,WSW,239,0.0,0.0,83,0.00,,---,0.00,VWS V14.00,2013-01-24 06:36:00,
2013-01-24 00:41:00,-7.8,-11.3,30.60,WSW,239,0.0,0.0,84,0.00,,---,0.00,VWS V14.00,2013-01-24 06:41:00,
2013-01-24 00:46:00,-7.7,-11.2,30.60,WSW,239,0.0,2.0,84,0.00,,---,0.00,VWS V14.00,2013-01-24 06:46:00,
2013-01-24 00:51:00,-7.4,-10.7,30.61,WSW,239,0.0,0.0,85,0.00,,---,0.00,VWS V14.00,2013-01-24 06:51:00,
2013-01-24 00:56:00,-7.3,-10.6,30.61,WSW,239,0.0,0.0,85,0.00,,---,0.00,VWS V14.00,2013-01-24 06:56:00,
2013-01-24 01:01:00,-7.3,-10.8,30.61,WSW,239,0.0,0.0,84,0.00,,---,0.00,VWS V14.00,2013-01-24 07:01:00,
2013-01-24 01:06:00,-7.5,-11.3,30.61,WSW,239,0.0,0.0,83,0.00,,---,0.00,VWS V14.00,2013-01-24 07:06:00,
2013-01-24 01:11:00,-7.7,-11.5,30.61,WSW,239,0.0,0.0,83,0.00,,---,0.00,VWS V14.00,2013-01-24 07:11:00,
2013-01-24 01:16:00,-7.9,-11.9,30.61,WSW,239,0.0,0.0,82,0.00,,---,0.00,VWS V14.00,2013-01-24 07:16:00,
2013-01-24 01:21:00,-8.1,-12.1,30.62,WSW,239,0.0,0.0,82,0.00,,---,0.00,VWS V14.00,2013-01-24 07:21:00,
2013-01-24 01:26:00,-8.3,-12.3,30.62,WSW,239,0.0,0.0,82,0.00,,---,0.00,VWS V14.00,2013-01-24 07:26:00,
2013-01-24 01:31:00,-8.6,-12.6,30.61,WSW,239,0.0,0.0,82,0.00,,---,0.00,VWS V14.00,2013-01-24 07:31:00,
2013-01-24 01:36:00,-8.8,-12.8,30.62,WSW,239,0.0,0.0,82,0.00,,---,0.00,VWS V14.00,2013-01-24 07:36:00,
2013-01-24 01:41:00,-8.9,-12.9,30.61,WSW,239,0.0,0.0,82,0.00,,---,0.00,VWS V14.00,2013-01-24 07:41:00,
2013-01-24 01:46:00,-9.1,-13.1,30.61,WSW,239,0.0,0.0,82,0.00,,---,0.00,VWS V14.00,2013-01-24 07:46:00,
2013-01-24 01:51:00,-9.4,-13.4,30.62,WSW,239,0.0,0.0,82,0.00,,---,0.00,VWS V14.00,2013-01-24 07:51:00,
2013-01-24 01:56:00,-9.6,-13.6,30.62,WSW,239,0.0,0.0,82,0.00,,---,0.00,VWS V14.00,2013-01-24 07:56:00,
2013-01-24 02:01:00,-9.8,-13.8,30.62,WSW,239,0.0,0.0,82,0.00,,---,0.00,VWS V14.00,2013-01-24 08:01:00,
2013-01-24 02:06:00,-9.9,-13.9,30.63,WSW,239,0.0,0.0,82,0.00,,---,0.00,VWS V14.00,2013-01-24 08:06:00,
2013-01-24 02:11:00,-9.9,-13.6,30.63,WSW,239,0.0,0.0,83,0.00,,---,0.00,VWS V14.00,2013-01-24 08:11:00,
2013-01-24 02:16:00,-9.9,-13.6,30.63,WSW,239,0.0,0.0,83,0.00,,---,0.00,VWS V14.00,2013-01-24 08:16:00,
2013-01-24 02:21:00,-10.0,-13.7,30.64,WSW,239,0.0,0.0,83,0.00,,---,0.00,VWS V14.00,2013-01-24 08:21:00,
2013-01-24 02:26:00,-10.0,-13.7,30.64,WSW,239,0.0,0.0,83,0.00,,---,0.00,VWS V14.00,2013-01-24 08:26:00,
2013-01-24 02:31:00,-10.1,-14.1,30.64,WSW,239,0.0,0.0,82,0.00,,---,0.00,VWS V14.00,2013-01-24 08:31:00,
2013-01-24 02:36:00,-10.2,-13.9,30.65,WSW,239,0.0,0.0,83,0.00,,---,0.00,VWS V14.00,2013-01-24 08:36:00,
2013-01-24 02:41:00,-10.2,-13.9,30.65,WSW,239,0.0,0.0,83,0.00,,---,0.00,VWS V14.00,2013-01-24 08:41:00,
2013-01-24 02:46:00,-10.2,-13.9,30.65,WSW,239,0.0,0.0,83,0.00,,---,0.00,VWS V14.00,2013-01-24 08:46:00,
2013-01-24 02:51:00,-10.3,-14.3,30.65,WSW,239,0.0,0.0,82,0.00,,---,0.00,VWS V14.00,2013-01-24 08:51:00,
2013-01-24 02:56:00,-10.4,-14.4,30.66,WSW,239,0.0,0.0,82,0.00,,---,0.00,VWS V14.00,2013-01-24 08:56:00,
2013-01-24 03:01:00,-10.6,-14.6,30.66,WSW,239,0.0,0.0,82,0.00,,---,0.00,VWS V14.00,2013-01-24 09:01:00,
2013-01-24 03:06:00,-10.8,-14.8,30.66,WSW,239,0.0,0.0,82,0.00,,---,0.00,VWS V14.00,2013-01-24 09:06:00,
2013-01-24 03:11:00,-10.9,-14.9,30.66,WSW,239,0.0,0.0,82,0.00,,---,0.00,VWS V14.00,2013-01-24 09:11:00,
2013-01-24 03:16:00,-11.0,-14.9,30.66,WSW,239,0.0,0.0,82,0.00,,---,0.00,VWS V14.00,2013-01-24 09:16:00,
2013-01-24 03:21:00,-11.1,-15.1,30.66,WSW,239,0.0,0.0,82,0.00,,---,0.00,VWS V14.00,2013-01-24 09:21:00,
2013-01-24 03:26:00,-11.2,-15.1,30.66,WSW,239,0.0,0.0,82,0.00,,---,0.00,VWS V14.00,2013-01-24 09:26:00,
2013-01-24 03:31:00,-11.4,-15.4,30.66,WSW,239,0.0,0.0,82,0.00,,---,0.00,VWS V14.00,2013-01-24 09:31:00,
2013-01-24 03:36:00,-11.7,-15.9,30.66,WSW,239,0.0,0.0,81,0.00,,---,0.00,VWS V14.00,2013-01-24 09:36:00,
2013-01-24 03:41:00,-11.8,-16.0,30.66,WSW,239,0.0,0.0,81,0.00,,---,0.00,VWS V14.00,2013-01-24 09:41:00,
2013-01-24 03:46:00,-12.1,-16.3,30.66,WSW,239,0.0,0.0,81,0.00,,---,0.00,VWS V14.00,2013-01-24 09:46:00,
2013-01-24 03:51:00,-12.4,-16.6,30.66,WSW,239,0.0,0.0,81,0.00,,---,0.00,VWS V14.00,2013-01-24 09:51:00,
2013-01-24 03:56:00,-12.6,-16.8,30.66,WSW,239,0.0,0.0,81,0.00,,---,0.00,VWS V14.00,2013-01-24 09:56:00,
2013-01-24 04:01:00,-12.8,-17.0,30.66,WSW,239,0.0,0.0,81,0.00,,---,0.00,VWS V14.00,2013-01-24 10:01:00,
2013-01-24 04:06:00,-13.1,-17.5,30.67,WSW,239,0.0,0.0,80,0.00,,---,0.00,VWS V14.00,2013-01-24 10:06:00,
2013-01-24 04:11:00,-13.3,-17.7,30.67,WSW,239,0.0,0.0,80,0.00,,---,0.00,VWS V14.00,2013-01-24 10:11:00,
2013-01-24 04:16:00,-13.5,-17.6,30.67,WSW,239,0.0,0.0,81,0.00,,---,0.00,VWS V14.00,2013-01-24 10:16:00,
2013-01-24 04:21:00,-13.7,-18.1,30.67,WSW,239,0.0,0.0,80,0.00,,---,0.00,VWS V14.00,2013-01-24 10:21:00,
2013-01-24 04:26:00,-13.9,-18.3,30.67,WSW,239,0.0,0.0,80,0.00,,---,0.00,VWS V14.00,2013-01-24 10:26:00,
2013-01-24 04:31:00,-14.1,-18.2,30.67,WSW,239,0.0,0.0,81,0.00,,---,0.00,VWS V14.00,2013-01-24 10:31:00,
2013-01-24 04:36:00,-14.2,-18.3,30.67,WSW,239,0.0,0.0,81,0.00,,---,0.00,VWS V14.00,2013-01-24 10:36:00,
2013-01-24 04:41:00,-14.2,-18.3,30.67,WSW,239,0.0,0.0,81,0.00,,---,0.00,VWS V14.00,2013-01-24 10:41:00,
2013-01-24 04:46:00,-14.2,-18.3,30.68,WSW,239,0.0,0.0,81,0.00,,---,0.00,VWS V14.00,2013-01-24 10:46:00,
2013-01-24 04:51:00,-14.2,-18.3,30.68,WSW,239,0.0,0.0,81,0.00,,---,0.00,VWS V14.00,2013-01-24 10:51:00,
2013-01-24 04:56:00,-14.2,-18.3,30.68,WSW,239,0.0,0.0,81,0.00,,---,0.00,VWS V14.00,2013-01-24 10:56:00,
2013-01-24 05:01:00,-14.3,-18.4,30.68,WSW,239,0.0,0.0,81,0.00,,---,0.00,VWS V14.00,2013-01-24 11:01:00,
2013-01-24 05:06:00,-14.3,-18.4,30.68,WSW,239,0.0,0.0,81,0.00,,---,0.00,VWS V14.00,2013-01-24 11:06:00,
2013-01-24 05:11:00,-14.4,-18.5,30.68,WSW,239,0.0,0.0,81,0.00,,---,0.00,VWS V14.00,2013-01-24 11:11:00,
2013-01-24 05:16:00,-14.5,-18.6,30.68,WSW,239,0.0,0.0,81,0.00,,---,0.00,VWS V14.00,2013-01-24 11:16:00,
2013-01-24 05:21:00,-14.6,-18.7,30.68,WSW,239,0.0,0.0,81,0.00,,---,0.00,VWS V14.00,2013-01-24 11:21:00,
2013-01-24 05:27:00,-14.7,-18.8,30.68,WSW,239,0.0,0.0,81,0.00,,---,0.00,VWS V14.00,2013-01-24 11:27:00,
2013-01-24 05:32:00,-14.8,-18.9,30.68,WSW,239,0.0,0.0,81,0.00,,---,0.00,VWS V14.00,2013-01-24 11:32:00,
2013-01-24 05:37:00,-14.8,-18.9,30.68,WSW,239,0.0,0.0,81,0.00,,---,0.00,VWS V14.00,2013-01-24 11:37:00,
2013-01-24 05:42:00,-14.9,-19.0,30.68,WSW,239,0.0,0.0,81,0.00,,---,0.00,VWS V14.00,2013-01-24 11:42:00,
2013-01-24 05:46:00,-15.1,-19.2,30.68,WSW,239,0.0,0.0,81,0.00,,---,0.00,VWS V14.00,2013-01-24 11:46:00,
2013-01-24 05:51:00,-15.2,-19.5,30.69,WSW,239,0.0,0.0,80,0.00,,---,0.00,VWS V14.00,2013-01-24 11:51:00,
2013-01-24 05:56:00,-15.2,-19.5,30.69,WSW,239,0.0,0.0,80,0.00,,---,0.00,VWS V14.00,2013-01-24 11:56:00,
2013-01-24 06:01:00,-15.4,-19.7,30.69,WSW,239,0.0,0.0,80,0.00,,---,0.00,VWS V14.00,2013-01-24 12:01:00,
2013-01-24 06:06:00,-15.5,-19.8,30.70,WSW,239,0.0,0.0,80,0.00,,---,0.00,VWS V14.00,2013-01-24 12:06:00,
2013-01-24 06:11:00,-15.4,-19.5,30.70,WSW,239,0.0,0.0,81,0.00,,---,0.00,VWS V14.00,2013-01-24 12:11:00,
2013-01-24 06:16:00,-15.3,-19.4,30.70,WSW,239,0.0,1.0,81,0.00,,---,0.00,VWS V14.00,2013-01-24 12:16:00,
2013-01-24 06:21:00,-15.2,-19.1,30.70,WSW,239,0.0,0.0,82,0.00,,---,0.00,VWS V14.00,2013-01-24 12:21:00,
2013-01-24 06:26:00,-15.1,-19.2,30.70,WSW,239,0.0,0.0,81,0.00,,---,0.00,VWS V14.00,2013-01-24 12:26:00,
2013-01-24 06:31:00,-15.1,-19.2,30.71,WSW,239,0.0,0.0,81,0.00,,---,0.00,VWS V14.00,2013-01-24 12:31:00,
2013-01-24 06:36:00,-15.1,-19.2,30.71,WSW,239,0.0,0.0,81,0.00,,---,0.00,VWS V14.00,2013-01-24 12:36:00,
2013-01-24 06:41:00,-15.1,-19.2,30.71,WSW,239,0.0,0.0,81,0.00,,---,0.00,VWS V14.00,2013-01-24 12:41:00,
2013-01-24 06:46:00,-15.1,-19.2,30.71,WSW,239,0.0,0.0,81,0.00,,---,0.00,VWS V14.00,2013-01-24 12:46:00,
2013-01-24 06:51:00,-14.6,-18.5,30.71,WSW,239,0.0,0.0,82,0.00,,---,0.00,VWS V14.00,2013-01-24 12:51:00,
2013-01-24 06:56:00,-14.5,-18.4,30.71,WSW,239,0.0,0.0,82,0.00,,---,0.00,VWS V14.00,2013-01-24 12:56:00,
2013-01-24 07:01:00,-14.5,-18.4,30.71,WSW,239,0.0,0.0,82,0.00,,---,0.00,VWS V14.00,2013-01-24 13:01:00,
2013-01-24 07:06:00,-14.5,-18.6,30.71,WSW,239,0.0,0.0,81,0.00,,---,0.00,VWS V14.00,2013-01-24 13:06:00,
2013-01-24 07:11:00,-14.4,-18.5,30.71,WSW,239,0.0,0.0,81,0.00,,---,0.00,VWS V14.00,2013-01-24 13:11:00,
2013-01-24 07:16:00,-14.4,-18.5,30.70,WSW,239,0.0,0.0,81,0.00,,---,0.00,VWS V14.00,2013-01-24 13:16:00,
2013-01-24 07:21:00,-14.5,-18.6,30.71,WSW,239,0.0,0.0,81,0.00,,---,0.00,VWS V14.00,2013-01-24 13:21:00,
2013-01-24 07:26:00,-14.6,-18.7,30.71,WSW,239,0.0,0.0,81,0.00,,---,0.00,VWS V14.00,2013-01-24 13:26:00,
2013-01-24 07:31:00,-14.7,-18.8,30.71,WSW,239,0.0,0.0,81,0.00,,---,0.00,VWS V14.00,2013-01-24 13:31:00,
2013-01-24 07:36:00,-14.7,-18.8,30.72,WSW,239,0.0,0.0,81,0.00,,---,0.00,VWS V14.00,2013-01-24 13:36:00,
2013-01-24 07:41:00,-14.8,-19.2,30.72,WSW,239,0.0,0.0,80,0.00,,---,0.00,VWS V14.00,2013-01-24 13:41:00,
2013-01-24 07:46:00,-15.0,-19.4,30.72,WSW,239,0.0,0.0,80,0.00,,---,0.00,VWS V14.00,2013-01-24 13:46:00,
2013-01-24 07:51:00,-15.0,-19.4,30.72,WSW,239,0.0,0.0,80,0.00,,---,0.00,VWS V14.00,2013-01-24 13:51:00,
2013-01-24 07:56:00,-15.1,-19.2,30.72,WSW,239,0.0,0.0,81,0.00,,---,0.00,VWS V14.00,2013-01-24 13:56:00,
2013-01-24 08:01:00,-15.1,-19.2,30.73,WSW,239,0.0,0.0,81,0.00,,---,0.00,VWS V14.00,2013-01-24 14:01:00,
2013-01-24 08:06:00,-15.1,-19.2,30.73,WSW,239,0.0,0.0,81,0.00,,---,0.00,VWS V14.00,2013-01-24 14:06:00,
2013-01-24 08:11:00,-15.1,-19.2,30.73,WSW,239,0.0,0.0,81,0.00,,---,0.00,VWS V14.00,2013-01-24 14:11:00,
2013-01-24 08:16:00,-15.0,-19.1,30.73,WSW,239,0.0,0.0,81,0.00,,---,0.00,VWS V14.00,2013-01-24 14:16:00,
2013-01-24 08:21:00,-15.0,-19.1,30.73,WSW,239,0.0,0.0,81,0.00,,---,0.00,VWS V14.00,2013-01-24 14:21:00,
2013-01-24 08:26:00,-15.0,-19.1,30.73,WSW,239,0.0,0.0,81,0.00,,---,0.00,VWS V14.00,2013-01-24 14:26:00,
2013-01-24 08:31:00,-15.0,-19.1,30.73,WSW,239,0.0,0.0,81,0.00,,---,0.00,VWS V14.00,2013-01-24 14:31:00,
2013-01-24 08:37:00,-14.9,-19.0,30.72,WSW,239,0.0,0.0,81,0.00,,---,0.00,VWS V14.00,2013-01-24 14:37:00,
2013-01-24 08:42:00,-14.7,-18.8,30.72,WSW,239,0.0,0.0,81,0.00,,---,0.00,VWS V14.00,2013-01-24 14:42:00,
2013-01-24 08:46:00,-14.5,-18.4,30.73,WSW,239,0.0,0.0,82,0.00,,---,0.00,VWS V14.00,2013-01-24 14:46:00,
2013-01-24 08:51:00,-14.0,-17.7,30.73,WSW,239,0.0,0.0,83,0.00,,---,0.00,VWS V14.00,2013-01-24 14:51:00,
2013-01-24 08:56:00,-13.4,-17.1,30.72,WSW,239,0.0,0.0,83,0.00,,---,0.00,VWS V14.00,2013-01-24 14:56:00,
2013-01-24 09:01:00,-12.9,-16.6,30.72,WSW,239,0.0,0.0,83,0.00,,---,0.00,VWS V14.00,2013-01-24 15:01:00,
2013-01-24 09:06:00,-12.5,-16.2,30.72,WSW,239,0.0,0.0,83,0.00,,---,0.00,VWS V14.00,2013-01-24 15:06:00,
2013-01-24 09:12:00,-12.1,-15.8,30.72,WSW,239,0.0,0.0,83,0.00,,---,0.00,VWS V14.00,2013-01-24 15:12:00,
2013-01-24 09:17:00,-11.2,-14.4,30.71,WSW,239,0.0,1.0,85,0.00,,---,0.00,VWS V14.00,2013-01-24 15:17:00,
2013-01-24 09:22:00,-10.3,-13.3,30.71,WSW,239,0.0,0.0,86,0.00,,---,0.00,VWS V14.00,2013-01-24 15:22:00,
2013-01-24 09:27:00,-9.2,-12.2,30.71,WSW,239,0.0,0.0,86,0.00,,---,0.00,VWS V14.00,2013-01-24 15:27:00,
2013-01-24 09:31:00,-8.5,-11.6,30.70,WSW,239,0.0,0.0,86,0.00,,---,0.00,VWS V14.00,2013-01-24 15:31:00,
2013-01-24 09:37:00,-8.0,-11.3,30.71,WSW,239,0.0,0.0,85,0.00,,---,0.00,VWS V14.00,2013-01-24 15:37:00,
2013-01-24 09:42:00,-7.6,-10.9,30.71,WSW,239,0.0,0.0,85,0.00,,---,0.00,VWS V14.00,2013-01-24 15:42:00,
2013-01-24 09:47:00,-7.0,-10.1,30.71,WSW,239,0.0,1.0,86,0.00,,---,0.00,VWS V14.00,2013-01-24 15:47:00,
2013-01-24 09:51:00,-5.9,-8.8,30.71,WSW,239,0.0,1.0,87,0.00,,---,0.00,VWS V14.00,2013-01-24 15:51:00,
2013-01-24 09:56:00,-5.0,-7.9,30.71,WSW,239,0.0,1.0,87,0.00,,---,0.00,VWS V14.00,2013-01-24 15:56:00,
2013-01-24 10:01:00,-4.5,-7.6,30.71,WSW,239,0.0,1.0,86,0.00,,---,0.00,VWS V14.00,2013-01-24 16:01:00,
2013-01-24 10:06:00,-4.0,-7.1,30.71,WSW,239,0.0,0.0,86,0.00,,---,0.00,VWS V14.00,2013-01-24 16:06:00,
2013-01-24 10:11:00,-3.4,-6.5,30.71,WSW,239,0.0,0.0,86,0.00,,---,0.00,VWS V14.00,2013-01-24 16:11:00,
2013-01-24 10:16:00,-2.9,-6.0,30.71,NNE,26,0.0,2.0,86,0.00,,---,0.00,VWS V14.00,2013-01-24 16:16:00,
2013-01-24 10:21:00,-2.3,-5.4,30.70,NNE,26,1.0,1.0,86,0.00,,---,0.00,VWS V14.00,2013-01-24 16:21:00,
2013-01-24 10:26:00,-1.7,-5.3,30.71,NNE,17,0.0,5.0,84,0.00,,---,0.00,VWS V14.00,2013-01-24 16:26:00,
2013-01-24 10:31:00,-1.3,-4.9,30.71,North,5,0.0,5.0,84,0.00,,---,0.00,VWS V14.00,2013-01-24 16:31:00,
2013-01-24 10:36:00,-0.9,-4.6,30.71,SSE,162,0.0,2.0,84,0.00,,---,0.00,VWS V14.00,2013-01-24 16:36:00,
2013-01-24 10:41:00,-0.5,-4.7,30.71,SSE,151,1.0,2.0,82,0.00,,---,0.00,VWS V14.00,2013-01-24 16:41:00,
2013-01-24 10:46:00,-0.3,-4.5,30.71,NNE,28,0.0,2.0,82,0.00,,---,0.00,VWS V14.00,2013-01-24 16:46:00,
2013-01-24 10:51:00,0.2,-4.0,30.71,NE,49,0.0,0.0,82,0.00,,---,0.00,VWS V14.00,2013-01-24 16:51:00,
2013-01-24 10:56:00,0.5,-4.2,30.70,NNE,30,0.0,5.0,80,0.00,,---,0.00,VWS V14.00,2013-01-24 16:56:00,
2013-01-24 11:01:00,0.7,-4.3,30.70,NNE,14,0.0,5.0,79,0.00,,---,0.00,VWS V14.00,2013-01-24 17:01:00,
2013-01-24 11:06:00,0.9,-4.1,30.70,North,360,4.0,5.0,79,0.00,,---,0.00,VWS V14.00,2013-01-24 17:06:00,
2013-01-24 11:11:00,1.2,-4.1,30.70,WSW,252,2.0,5.0,78,0.00,,---,0.00,VWS V14.00,2013-01-24 17:11:00,
2013-01-24 11:16:00,1.4,-3.6,30.70,SSE,163,0.0,5.0,79,0.00,,---,0.00,VWS V14.00,2013-01-24 17:16:00,
2013-01-24 11:21:00,1.7,-3.3,30.69,SSE,163,0.0,0.0,79,0.00,,---,0.00,VWS V14.00,2013-01-24 17:21:00,
2013-01-24 11:26:00,1.9,-3.1,30.70,SSW,196,3.0,4.0,79,0.00,,---,0.00,VWS V14.00,2013-01-24 17:26:00,
2013-01-24 11:31:00,1.8,-3.5,30.70,SW,227,0.0,4.0,78,0.00,,---,0.00,VWS V14.00,2013-01-24 17:31:00,
2013-01-24 11:36:00,1.8,-3.5,30.69,South,178,2.0,3.0,78,0.00,,---,0.00,VWS V14.00,2013-01-24 17:36:00,
2013-01-24 11:41:00,2.0,-3.3,30.69,SSW,211,2.0,4.0,78,0.00,,---,0.00,VWS V14.00,2013-01-24 17:41:00,
2013-01-24 11:46:00,2.1,-3.4,30.69,SSW,213,1.0,5.0,77,0.00,,---,0.00,VWS V14.00,2013-01-24 17:46:00,
2013-01-24 11:51:00,2.2,-3.6,30.69,South,181,2.0,5.0,76,0.00,,---,0.00,VWS V14.00,2013-01-24 17:51:00,
2013-01-24 11:56:00,2.4,-3.4,30.69,South,169,3.0,5.0,76,0.00,,---,0.00,VWS V14.00,2013-01-24 17:56:00,
2013-01-24 12:01:00,2.6,-3.5,30.69,SSE,154,3.0,5.0,75,0.00,,---,0.00,VWS V14.00,2013-01-24 18:01:00,
2013-01-24 12:06:00,2.8,-3.3,30.68,South,189,2.0,2.0,75,0.00,,---,0.00,VWS V14.00,2013-01-24 18:06:00,
2013-01-24 12:11:00,3.0,-3.1,30.68,SSE,168,0.0,4.0,75,0.00,,---,0.00,VWS V14.00,2013-01-24 18:11:00,
2013-01-24 12:16:00,3.1,-3.0,30.68,South,175,3.0,5.0,75,0.00,,---,0.00,VWS V14.00,2013-01-24 18:16:00,
2013-01-24 12:21:00,3.0,-3.1,30.68,SSW,210,4.0,5.0,75,0.00,,---,0.00,VWS V14.00,2013-01-24 18:21:00,
2013-01-24 12:26:00,2.7,-3.7,30.68,SSW,202,3.0,5.0,74,0.00,,---,0.00,VWS V14.00,2013-01-24 18:26:00,
2013-01-24 12:31:00,2.6,-3.5,30.68,South,181,1.0,5.0,75,0.00,,---,0.00,VWS V14.00,2013-01-24 18:31:00,
2013-01-24 12:36:00,2.8,-3.3,30.67,SSW,203,1.0,3.0,75,0.00,,---,0.00,VWS V14.00,2013-01-24 18:36:00,
2013-01-24 12:41:00,2.9,-3.5,30.67,SSE,163,2.0,5.0,74,0.00,,---,0.00,VWS V14.00,2013-01-24 18:41:00,
2013-01-24 12:46:00,3.1,-3.3,30.66,SSW,194,2.0,5.0,74,0.00,,---,0.00,VWS V14.00,2013-01-24 18:46:00,
2013-01-24 12:51:00,3.3,-3.4,30.66,SSW,210,1.0,5.0,73,0.00,,---,0.00,VWS V14.00,2013-01-24 18:51:00,
2013-01-24 12:56:00,3.4,-3.3,30.66,SSE,163,3.0,5.0,73,0.00,,---,0.00,VWS V14.00,2013-01-24 18:56:00,
2013-01-24 13:01:00,3.3,-3.7,30.65,South,181,1.0,5.0,72,0.00,,---,0.00,VWS V14.00,2013-01-24 19:01:00,
2013-01-24 13:06:00,3.4,-3.6,30.65,South,178,3.0,4.0,72,0.00,,---,0.00,VWS V14.00,2013-01-24 19:06:00,
2013-01-24 13:11:00,3.4,-3.9,30.65,SW,214,3.0,4.0,71,0.00,,---,0.00,VWS V14.00,2013-01-24 19:11:00,
2013-01-24 13:16:00,3.3,-4.3,30.65,South,171,2.0,5.0,70,0.00,,---,0.00,VWS V14.00,2013-01-24 19:16:00,
2013-01-24 13:21:00,3.3,-4.0,30.65,SSE,166,1.0,4.0,71,0.00,,---,0.00,VWS V14.00,2013-01-24 19:21:00,
2013-01-24 13:26:00,3.4,-3.9,30.64,South,188,1.0,4.0,71,0.00,,---,0.00,VWS V14.00,2013-01-24 19:26:00,
2013-01-24 13:31:00,3.5,-4.1,30.64,SSE,151,1.0,5.0,70,0.00,,---,0.00,VWS V14.00,2013-01-24 19:31:00,
2013-01-24 13:36:00,3.5,-3.8,30.64,SE,137,4.0,5.0,71,0.00,,---,0.00,VWS V14.00,2013-01-24 19:36:00,
2013-01-24 13:41:00,3.6,-4.0,30.64,South,177,0.0,5.0,70,0.00,,---,0.00,VWS V14.00,2013-01-24 19:41:00,
2013-01-24 13:46:00,3.6,-4.0,30.63,South,182,3.0,6.0,70,0.00,,---,0.00,VWS V14.00,2013-01-24 19:46:00,
2013-01-24 13:51:00,3.6,-4.0,30.63,SW,225,5.0,5.0,70,0.00,,---,0.00,VWS V14.00,2013-01-24 19:51:00,
2013-01-24 13:56:00,3.6,-4.0,30.63,SSE,157,3.0,6.0,70,0.00,,---,0.00,VWS V14.00,2013-01-24 19:56:00,
2013-01-24 14:01:00,3.6,-3.7,30.63,SSE,149,2.0,6.0,71,0.00,,---,0.00,VWS V14.00,2013-01-24 20:01:00,
2013-01-24 14:06:00,3.7,-3.9,30.63,SSE,161,0.0,4.0,70,0.00,,---,0.00,VWS V14.00,2013-01-24 20:06:00,
2013-01-24 14:11:00,3.8,-3.8,30.63,South,190,1.0,4.0,70,0.00,,---,0.00,VWS V14.00,2013-01-24 20:11:00,
2013-01-24 14:16:00,3.8,-3.5,30.63,SSW,200,0.0,4.0,71,0.00,,---,0.00,VWS V14.00,2013-01-24 20:16:00,
2013-01-24 14:21:00,3.8,-3.8,30.63,SE,143,3.0,4.0,70,0.00,,---,0.00,VWS V14.00,2013-01-24 20:21:00,
2013-01-24 14:26:00,3.8,-3.8,30.64,SSE,164,2.0,4.0,70,0.00,,---,0.00,VWS V14.00,2013-01-24 20:26:00,
2013-01-24 14:31:00,3.8,-3.8,30.63,SSW,207,2.0,4.0,70,0.00,,---,0.00,VWS V14.00,2013-01-24 20:31:00,
2013-01-24 14:36:00,3.8,-3.5,30.63,SSE,157,1.0,5.0,71,0.00,,---,0.00,VWS V14.00,2013-01-24 20:36:00,
2013-01-24 14:41:00,3.8,-3.5,30.63,SSW,192,1.0,5.0,71,0.00,,---,0.00,VWS V14.00,2013-01-24 20:41:00,
2013-01-24 14:46:00,3.9,-3.4,30.63,SE,144,0.0,5.0,71,0.00,,---,0.00,VWS V14.00,2013-01-24 20:46:00,
2013-01-24 14:51:00,3.9,-3.4,30.63,SSE,168,0.0,2.0,71,0.00,,---,0.00,VWS V14.00,2013-01-24 20:51:00,
2013-01-24 14:56:00,4.0,-3.6,30.63,SSE,168,0.0,2.0,70,0.00,,---,0.00,VWS V14.00,2013-01-24 20:56:00,
2013-01-24 15:01:00,4.0,-3.6,30.62,SSE,168,1.0,3.0,70,0.00,,---,0.00,VWS V14.00,2013-01-24 21:01:00,
2013-01-24 15:06:00,4.0,-3.6,30.62,SSE,168,0.0,2.0,70,0.00,,---,0.00,VWS V14.00,2013-01-24 21:06:00,
2013-01-24 15:11:00,4.0,-3.6,30.62,SSW,198,2.0,3.0,70,0.00,,---,0.00,VWS V14.00,2013-01-24 21:11:00,
2013-01-24 15:16:00,4.1,-3.5,30.62,SSW,194,0.0,3.0,70,0.00,,---,0.00,VWS V14.00,2013-01-24 21:16:00,
2013-01-24 15:21:00,4.2,-3.1,30.62,SSW,194,0.0,2.0,71,0.00,,---,0.00,VWS V14.00,2013-01-24 21:21:00,
2013-01-24 15:26:00,4.2,-3.1,30.61,SSE,161,3.0,3.0,71,0.00,,---,0.00,VWS V14.00,2013-01-24 21:26:00,
2013-01-24 15:31:00,4.3,-3.0,30.61,SSE,161,1.0,3.0,71,0.00,,---,0.00,VWS V14.00,2013-01-24 21:31:00,
2013-01-24 15:36:00,4.4,-2.9,30.61,SSE,161,0.0,1.0,71,0.00,,---,0.00,VWS V14.00,2013-01-24 21:36:00,
2013-01-24 15:41:00,4.4,-2.9,30.61,SSE,161,0.0,3.0,71,0.00,,---,0.00,VWS V14.00,2013-01-24 21:41:00,
2013-01-24 15:46:00,4.4,-2.9,30.60,SSE,161,1.0,3.0,71,0.00,,---,0.00,VWS V14.00,2013-01-24 21:46:00,
2013-01-24 15:51:00,4.5,-2.8,30.60,SSE,161,0.0,0.0,71,0.00,,---,0.00,VWS V14.00,2013-01-24 21:51:00,
2013-01-24 15:56:00,4.5,-2.8,30.60,SSE,161,0.0,0.0,71,0.00,,---,0.00,VWS V14.00,2013-01-24 21:56:00,
2013-01-24 16:01:00,4.5,-2.8,30.60,SSE,161,0.0,1.0,71,0.00,,---,0.00,VWS V14.00,2013-01-24 22:01:00,
2013-01-24 16:06:00,4.5,-2.8,30.59,SSE,161,0.0,0.0,71,0.00,,---,0.00,VWS V14.00,2013-01-24 22:06:00,
2013-01-24 16:11:00,4.5,-2.5,30.58,SSE,161,0.0,0.0,72,0.00,,---,0.00,VWS V14.00,2013-01-24 22:11:00,
2013-01-24 16:16:00,4.5,-2.5,30.58,SSE,161,0.0,0.0,72,0.00,,---,0.00,VWS V14.00,2013-01-24 22:16:00,
2013-01-24 16:21:00,4.5,-2.5,30.58,SSE,161,0.0,0.0,72,0.00,,---,0.00,VWS V14.00,2013-01-24 22:21:00,
2013-01-24 16:26:00,4.6,-2.1,30.57,SSE,161,0.0,0.0,73,0.00,,---,0.00,VWS V14.00,2013-01-24 22:26:00,
2013-01-24 16:31:00,4.6,-1.9,30.57,SSE,161,0.0,0.0,74,0.00,,---,0.00,VWS V14.00,2013-01-24 22:31:00,
2013-01-24 16:36:00,4.6,-1.6,30.57,SSE,161,0.0,0.0,75,0.00,,---,0.00,VWS V14.00,2013-01-24 22:36:00,
2013-01-24 16:41:00,4.6,-1.6,30.56,SSE,161,0.0,0.0,75,0.00,,---,0.00,VWS V14.00,2013-01-24 22:41:00,
2013-01-24 16:46:00,4.6,-1.6,30.56,SSE,161,0.0,0.0,75,0.00,,---,0.00,VWS V14.00,2013-01-24 22:46:00,
2013-01-24 16:51:00,4.5,-1.7,30.56,SSE,161,0.0,0.0,75,0.00,,---,0.00,VWS V14.00,2013-01-24 22:51:00,
2013-01-24 16:56:00,4.5,-1.9,30.55,SSE,161,0.0,0.0,74,0.00,,---,0.00,VWS V14.00,2013-01-24 22:56:00,
2013-01-24 17:01:00,4.5,-1.7,30.55,SSE,161,0.0,2.0,75,0.00,,---,0.00,VWS V14.00,2013-01-24 23:01:00,
2013-01-24 17:06:00,4.5,-1.4,30.55,SSE,161,0.0,0.0,76,0.00,,---,0.00,VWS V14.00,2013-01-24 23:06:00,
2013-01-24 17:11:00,4.5,-1.4,30.54,SSE,161,0.0,0.0,76,0.00,,---,0.00,VWS V14.00,2013-01-24 23:11:00,
2013-01-24 17:16:00,4.5,-1.1,30.54,SSE,161,0.0,0.0,77,0.00,,---,0.00,VWS V14.00,2013-01-24 23:16:00,
2013-01-24 17:21:00,4.5,-1.1,30.54,SSE,161,0.0,0.0,77,0.00,,---,0.00,VWS V14.00,2013-01-24 23:21:00,
2013-01-24 17:26:00,4.5,-1.4,30.53,SSE,161,0.0,0.0,76,0.00,,---,0.00,VWS V14.00,2013-01-24 23:26:00,
2013-01-24 17:31:00,4.5,-1.7,30.53,SSE,161,0.0,1.0,75,0.00,,---,0.00,VWS V14.00,2013-01-24 23:31:00,
2013-01-24 17:36:00,4.5,-1.9,30.53,SSE,161,0.0,2.0,74,0.00,,---,0.00,VWS V14.00,2013-01-24 23:36:00,
2013-01-24 17:41:00,4.6,-2.1,30.52,SSE,161,0.0,2.0,73,0.00,,---,0.00,VWS V14.00,2013-01-24 23:41:00,
2013-01-24 17:46:00,4.7,-2.0,30.53,SSE,161,0.0,2.0,73,0.00,,---,0.00,VWS V14.00,2013-01-24 23:46:00,
2013-01-24 17:51:00,4.8,-1.9,30.53,SSE,161,0.0,0.0,73,0.00,,---,0.00,VWS V14.00,2013-01-24 23:51:00,
2013-01-24 17:56:00,4.9,-2.1,30.53,SSE,161,0.0,2.0,72,0.00,,---,0.00,VWS V14.00,2013-01-24 23:56:00,
2013-01-24 18:03:00,5.0,-2.3,30.53,SSE,161,0.0,2.0,71,0.00,,---,0.00,VWS V14.00,2013-01-25 00:03:00,
2013-01-24 18:08:00,5.0,-2.3,30.53,SSE,161,0.0,0.0,71,0.00,,---,0.00,VWS V14.00,2013-01-25 00:08:00,
2013-01-24 18:13:00,5.0,-2.0,30.52,SSE,161,0.0,0.0,72,0.00,,---,0.00,VWS V14.00,2013-01-25 00:13:00,
2013-01-24 18:18:00,5.0,0.2,30.52,SSE,161,0.0,0.0,80,0.00,,---,0.00,VWS V14.00,2013-01-25 00:18:00,
2013-01-24 18:24:00,5.0,0.2,30.52,SSE,161,0.0,2.0,80,0.00,,---,0.00,VWS V14.00,2013-01-25 00:24:00,
2013-01-24 18:29:00,5.0,-0.1,30.51,SSE,161,0.0,2.0,79,0.00,,---,0.00,VWS V14.00,2013-01-25 00:29:00,
2013-01-24 18:35:00,5.1,-2.2,30.51,SSE,161,0.0,1.0,71,0.00,,---,0.00,VWS V14.00,2013-01-25 00:35:00,
2013-01-24 18:40:00,5.1,-2.2,30.51,SSE,161,0.0,1.0,71,0.00,,---,0.00,VWS V14.00,2013-01-25 00:40:00,
2013-01-24 18:45:00,5.0,-2.3,30.51,SSE,161,0.0,3.0,71,0.00,,---,0.00,VWS V14.00,2013-01-25 00:45:00,
2013-01-24 18:50:00,5.1,-2.5,30.50,SSE,161,0.0,5.0,70,0.00,,---,0.00,VWS V14.00,2013-01-25 00:50:00,
2013-01-24 18:55:00,5.1,-2.5,30.50,SSE,161,1.0,5.0,70,0.00,,---,0.00,VWS V14.00,2013-01-25 00:55:00,
2013-01-24 19:00:00,5.0,-2.6,30.50,SSE,161,1.0,5.0,70,0.00,,---,0.00,VWS V14.00,2013-01-25 01:00:00,
2013-01-24 19:05:00,5.1,-2.8,30.50,SE,144,0.0,1.0,69,0.00,,---,0.00,VWS V14.00,2013-01-25 01:05:00,
2013-01-24 19:10:00,5.1,-2.8,30.51,South,178,0.0,4.0,69,0.00,,---,0.00,VWS V14.00,2013-01-25 01:10:00,
2013-01-24 19:15:00,5.1,-2.8,30.51,SE,142,0.0,4.0,69,0.00,,---,0.00,VWS V14.00,2013-01-25 01:15:00,
2013-01-24 19:20:00,5.2,-2.7,30.51,SE,143,1.0,3.0,69,0.00,,---,0.00,VWS V14.00,2013-01-25 01:20:00,
2013-01-24 19:25:00,5.2,-2.7,30.51,SE,144,0.0,5.0,69,0.00,,---,0.00,VWS V14.00,2013-01-25 01:25:00,
2013-01-24 19:30:00,5.3,-3.0,30.51,SSE,149,0.0,5.0,68,0.00,,---,0.00,VWS V14.00,2013-01-25 01:30:00,
2013-01-24 19:35:00,5.3,-2.6,30.50,SSE,151,1.0,3.0,69,0.00,,---,0.00,VWS V14.00,2013-01-25 01:35:00,
2013-01-24 19:40:00,5.3,-2.6,30.49,SSE,157,0.0,4.0,69,0.00,,---,0.00,VWS V14.00,2013-01-25 01:40:00,
2013-01-24 19:45:00,5.3,-2.6,30.49,SSE,157,2.0,4.0,69,0.00,,---,0.00,VWS V14.00,2013-01-25 01:45:00,
2013-01-24 19:50:00,5.3,-2.6,30.49,SE,139,0.0,2.0,69,0.00,,---,0.00,VWS V14.00,2013-01-25 01:50:00,
2013-01-24 19:55:00,5.3,-2.3,30.48,SE,136,0.0,2.0,70,0.00,,---,0.00,VWS V14.00,2013-01-25 01:55:00,
2013-01-24 20:00:00,5.3,-2.6,30.48,SSE,156,2.0,3.0,69,0.00,,---,0.00,VWS V14.00,2013-01-25 02:00:00,
2013-01-24 20:05:00,5.3,-2.6,30.48,NE,49,1.0,3.0,69,0.00,,---,0.00,VWS V14.00,2013-01-25 02:05:00,
2013-01-24 20:10:00,5.3,-2.3,30.48,SE,134,0.0,5.0,70,0.00,,---,0.00,VWS V14.00,2013-01-25 02:10:00,
2013-01-24 20:15:00,5.3,-2.3,30.47,SSE,157,4.0,5.0,70,0.00,,---,0.00,VWS V14.00,2013-01-25 02:15:00,
2013-01-24 20:20:00,5.3,-2.0,30.47,ESE,121,0.0,6.0,71,0.00,,---,0.00,VWS V14.00,2013-01-25 02:20:00,
2013-01-24 20:25:00,5.3,-1.5,30.47,SSE,153,3.0,6.0,73,0.00,,---,0.00,VWS V14.00,2013-01-25 02:25:00,
2013-01-24 20:30:00,5.1,-0.8,30.47,North,360,0.0,6.0,76,0.00,,---,0.00,VWS V14.00,2013-01-25 02:30:00,
2013-01-24 20:35:00,5.0,-0.3,30.46,SE,141,1.0,4.0,78,0.00,,---,0.00,VWS V14.00,2013-01-25 02:35:00,
2013-01-24 20:40:00,4.8,-0.3,30.45,SE,141,2.0,4.0,79,0.00,,---,0.00,VWS V14.00,2013-01-25 02:40:00,
2013-01-24 20:45:00,4.7,-0.1,30.45,SSE,152,1.0,4.0,80,0.00,,---,0.00,VWS V14.00,2013-01-25 02:45:00,
2013-01-24 20:50:00,4.6,0.1,30.44,SE,133,1.0,3.0,81,0.00,,---,0.00,VWS V14.00,2013-01-25 02:50:00,
2013-01-24 20:55:00,4.6,0.3,30.44,SSE,158,2.0,3.0,82,0.00,,---,0.00,VWS V14.00,2013-01-25 02:55:00,
2013-01-24 21:00:00,4.5,0.2,30.44,SSE,158,0.0,3.0,82,0.00,,---,0.00,VWS V14.00,2013-01-25 03:00:00,
2013-01-24 21:05:00,4.5,0.2,30.44,SSE,165,2.0,2.0,82,0.00,,---,0.00,VWS V14.00,2013-01-25 03:05:00,
2013-01-24 21:10:00,4.5,0.5,30.43,SE,140,0.0,3.0,83,0.00,,---,0.00,VWS V14.00,2013-01-25 03:10:00,
2013-01-24 21:15:00,4.6,0.6,30.43,SE,136,0.0,4.0,83,0.00,,---,0.00,VWS V14.00,2013-01-25 03:15:00,
2013-01-24 21:20:00,4.6,0.8,30.43,SE,138,2.0,2.0,84,0.00,,---,0.00,VWS V14.00,2013-01-25 03:20:00,
2013-01-24 21:25:00,4.6,0.8,30.43,SSE,156,0.0,3.0,84,0.00,,---,0.00,VWS V14.00,2013-01-25 03:25:00,
2013-01-24 21:30:00,4.6,0.8,30.42,SE,124,0.0,3.0,84,0.00,,---,0.00,VWS V14.00,2013-01-25 03:30:00,
2013-01-24 21:35:00,4.6,0.8,30.43,SSE,167,0.0,4.0,84,0.00,,---,0.00,VWS V14.00,2013-01-25 03:35:00,
2013-01-24 21:40:00,4.7,0.9,30.43,SSE,160,0.0,5.0,84,0.00,,---,0.00,VWS V14.00,2013-01-25 03:40:00,
2013-01-24 21:45:00,4.7,0.9,30.43,SSE,153,0.0,5.0,84,0.00,,---,0.00,VWS V14.00,2013-01-25 03:45:00,
2013-01-24 21:50:00,4.7,1.2,30.43,SSW,205,0.0,2.0,85,0.00,,---,0.00,VWS V14.00,2013-01-25 03:50:00,
2013-01-24 21:55:00,4.8,1.3,30.43,SSE,161,0.0,5.0,85,0.00,,---,0.00,VWS V14.00,2013-01-25 03:55:00,
2013-01-24 22:00:00,4.9,1.4,30.43,ESE,102,0.0,5.0,85,0.00,,---,0.00,VWS V14.00,2013-01-25 04:00:00,
2013-01-24 22:05:00,4.9,1.4,30.43,SSE,155,0.0,3.0,85,0.00,,---,0.00,VWS V14.00,2013-01-25 04:05:00,
2013-01-24 22:10:00,4.9,1.4,30.41,ESE,122,1.0,4.0,85,0.00,,---,0.00,VWS V14.00,2013-01-25 04:10:00,
2013-01-24 22:15:00,5.0,1.5,30.41,SE,129,0.0,6.0,85,0.00,,---,0.00,VWS V14.00,2013-01-25 04:15:00,
2013-01-24 22:20:00,5.0,1.5,30.41,SE,132,0.0,2.0,85,0.00,,---,0.00,VWS V14.00,2013-01-25 04:20:00,
2013-01-24 22:25:00,5.0,4.1,30.41,SE,132,1.0,2.0,96,0.00,,---,0.00,VWS V14.00,2013-01-25 04:25:00,
2013-01-24 22:30:00,5.0,4.1,30.41,SE,133,3.0,3.0,96,0.00,,---,0.00,VWS V14.00,2013-01-25 04:30:00,
2013-01-24 22:35:00,5.0,1.7,30.40,SSE,162,0.0,3.0,86,0.00,,---,0.00,VWS V14.00,2013-01-25 04:35:00,
2013-01-24 22:40:00,5.1,1.8,30.40,SE,146,4.0,5.0,86,0.00,,---,0.00,VWS V14.00,2013-01-25 04:40:00,
2013-01-24 22:45:00,5.1,1.8,30.40,SSE,165,3.0,7.0,86,0.00,,---,0.00,VWS V14.00,2013-01-25 04:45:00,
2013-01-24 22:50:00,5.2,1.9,30.39,SSE,162,2.0,3.0,86,0.00,,---,0.00,VWS V14.00,2013-01-25 04:50:00,
2013-01-24 22:55:00,5.2,1.9,30.39,SSW,197,0.0,7.0,86,0.00,,---,0.00,VWS V14.00,2013-01-25 04:55:00,
2013-01-24 23:00:00,5.3,2.0,30.39,SE,142,1.0,7.0,86,0.00,,---,0.00,VWS V14.00,2013-01-25 05:00:00,
2013-01-24 23:02:00,5.3,2.0,30.39,East,90,0.0,7.0,86,0.00,,---,0.00,VWS V14.00,2013-01-25 05:02:00,
2013-01-24 23:03:00,5.3,2.0,30.39,East,90,0.0,7.0,86,0.00,,---,0.00,VWS V14.00,2013-01-25 05:03:00,
2013-01-24 23:08:00,5.3,2.0,30.39,SE,128,2.0,7.0,86,0.00,,---,0.00,VWS V14.00,2013-01-25 05:08:00,
2013-01-24 23:13:00,5.3,2.0,30.38,SE,131,0.0,7.0,86,0.00,,---,0.00,VWS V14.00,2013-01-25 05:13:00,
2013-01-24 23:18:00,5.4,2.1,30.38,SSE,163,2.0,7.0,86,0.00,,---,0.00,VWS V14.00,2013-01-25 05:18:00,
2013-01-24 23:23:00,5.4,2.1,30.37,SE,144,1.0,2.0,86,0.00,,---,0.00,VWS V14.00,2013-01-25 05:23:00,
2013-01-24 23:28:00,5.4,2.1,30.37,SSE,147,0.0,5.0,86,0.00,,---,0.00,VWS V14.00,2013-01-25 05:28:00,
2013-01-24 23:33:00,5.4,2.1,30.37,ESE,105,2.0,5.0,86,0.00,,---,0.00,VWS V14.00,2013-01-25 05:33:00,
2013-01-24 23:38:00,5.5,2.2,30.36,SE,130,1.0,4.0,86,0.00,,---,0.00,VWS V14.00,2013-01-25 05:38:00,
2013-01-24 23:43:00,5.6,2.3,30.36,SSE,158,0.0,4.0,86,0.00,,---,0.00,VWS V14.00,2013-01-25 05:43:00,
2013-01-24 23:48:00,5.6,2.1,30.36,SSE,164,2.0,8.0,85,0.00,,---,0.00,VWS V14.00,2013-01-25 05:48:00,
2013-01-24 23:53:00,5.7,2.2,30.35,South,178,6.0,6.0,85,0.00,,---,0.00,VWS V14.00,2013-01-25 05:53:00,
2013-01-24 23:58:00,5.8,2.3,30.35,SSE,151,0.0,6.0,85,0.00,,---,0.00,VWS V14.00,2013-01-25 05:58:00,